Time;durP1;ratioP1;P1;durP2;ratioP2;P2;SDS_P1;SDS_P2;PMS_P1;PMS_P2;Temp;Humidity;BMP_temperature;BMP_pressure;BME280_temperature;BME280_humidity;BME280_pressure;Samples;Min_cycle;Max_cycle;Signal;HPM_P1;HPM_P2
2021/12/21 00:00:11;;;;;;;18.02;10.23;;;;;;;;;;5094925;28;20060;-75
2021/12/21 00:02:38;;;;;;;15.20;9.77;;;;;;;;;;5062242;28;20057;-75
2021/12/21 00:05:04;;;;;;;14.63;10.02;;;;;;;;;;5093245;28;20044;-75
2021/12/21 00:07:30;;;;;;;17.83;10.70;;;;;;;;;;5060127;28;20126;-75
2021/12/21 00:09:56;;;;;;;15.27;9.65;;;;;;;;;;5094780;28;20076;-75
2021/12/21 00:12:25;;;;;;;13.07;9.10;;;;;;;;;;5066921;28;20051;-75
2021/12/21 00:15:42;;;;;;;15.40;10.70;;;;;;;;;;5060509;28;20052;-75
2021/12/21 00:20:49;;;;;;;15.75;10.00;;;;;;;;;;5066699;28;20049;-75
2021/12/21 00:25:44;;;;;;;16.30;9.90;;;;;;;;;;5065753;28;20048;-75
2021/12/21 00:28:10;;;;;;;14.15;10.15;;;;;;;;;;5062886;28;20044;-75
2021/12/21 00:30:36;;;;;;;14.77;9.93;;;;;;;;;;5096549;28;20045;-75
2021/12/21 00:33:02;;;;;;;15.55;10.10;;;;;;;;;;5097348;28;20040;-75
2021/12/21 00:35:28;;;;;;;15.15;10.10;;;;;;;;;;5095537;28;20048;-75
2021/12/21 00:37:57;;;;;;;15.40;10.13;;;;;;;;;;5058447;28;20051;-75
2021/12/21 00:40:23;;;;;;;13.73;9.80;;;;;;;;;;5060152;28;20040;-75
2021/12/21 00:42:49;;;;;;;13.45;9.30;;;;;;;;;;5064337;28;20094;-75
2021/12/21 00:45:15;;;;;;;16.38;10.13;;;;;;;;;;5059422;28;20048;-75
2021/12/21 00:47:47;;;;;;;15.27;9.85;;;;;;;;;;5059648;28;20041;-75
2021/12/21 00:50:17;;;;;;;14.43;9.82;;;;;;;;;;5093163;28;20107;-75
2021/12/21 00:52:43;;;;;;;14.80;10.00;;;;;;;;;;5064983;28;20071;-75
2021/12/21 00:55:09;;;;;;;14.00;9.88;;;;;;;;;;5062334;28;20044;-75
2021/12/21 00:57:35;;;;;;;13.63;9.77;;;;;;;;;;5092939;28;20072;-75
2021/12/21 01:00:04;;;;;;;16.25;10.25;;;;;;;;;;5096600;28;20087;-75
2021/12/21 01:02:30;;;;;;;14.85;9.20;;;;;;;;;;5103416;28;20756;-75
2021/12/21 01:04:57;;;;;;;14.25;9.50;;;;;;;;;;5069141;28;20045;-75
2021/12/21 01:07:32;;;;;;;13.05;9.68;;;;;;;;;;5069248;28;20041;-75
2021/12/21 01:10:26;;;;;;;12.93;9.43;;;;;;;;;;5062253;28;20051;-76
2021/12/21 01:12:55;;;;;;;14.40;9.75;;;;;;;;;;5094044;28;20454;-75
2021/12/21 01:18:13;;;;;;;15.30;9.90;;;;;;;;;;5095678;28;20048;-75
2021/12/21 01:21:01;;;;;;;16.52;9.75;;;;;;;;;;5066679;28;20049;-75
2021/12/21 01:26:18;;;;;;;16.77;9.27;;;;;;;;;;5067475;28;20056;-75
2021/12/21 01:28:59;;;;;;;12.30;8.77;;;;;;;;;;5098230;28;20409;-76
2021/12/21 01:34:09;;;;;;;15.73;9.50;;;;;;;;;;5102192;28;20052;-76
2021/12/21 01:39:14;;;;;;;15.18;9.45;;;;;;;;;;5065902;28;20052;-75
2021/12/21 01:41:55;;;;;;;16.33;9.82;;;;;;;;;;5099030;28;20044;-75
2021/12/21 01:49:49;;;;;;;12.00;9.20;;;;;;;;;;5065355;28;20044;-76
2021/12/21 01:52:17;;;;;;;15.07;9.75;;;;;;;;;;5070146;28;20519;-76
2021/12/21 01:54:43;;;;;;;12.20;9.57;;;;;;;;;;5067571;28;20045;-75
2021/12/21 01:57:12;;;;;;;13.75;10.38;;;;;;;;;;5095140;28;20045;-75
2021/12/21 01:59:39;;;;;;;14.32;9.85;;;;;;;;;;5073833;28;20130;-76
2021/12/21 02:02:08;;;;;;;14.13;10.07;;;;;;;;;;5096115;28;20572;-75
2021/12/21 02:04:34;;;;;;;13.60;9.45;;;;;;;;;;5059320;28;20510;-75
2021/12/21 02:07:00;;;;;;;12.55;9.30;;;;;;;;;;5064363;28;20049;-76
2021/12/21 02:09:34;;;;;;;15.07;10.18;;;;;;;;;;5095501;27;20045;-75
2021/12/21 02:12:00;;;;;;;13.18;9.45;;;;;;;;;;5096615;28;20048;-75
2021/12/21 02:14:26;;;;;;;14.00;9.30;;;;;;;;;;5066755;28;20049;-76
2021/12/21 02:19:36;;;;;;;13.50;9.32;;;;;;;;;;5069878;28;20056;-76
2021/12/21 02:22:10;;;;;;;13.88;9.35;;;;;;;;;;5095467;28;20057;-76
2021/12/21 02:24:49;;;;;;;15.82;9.65;;;;;;;;;;5064799;28;20065;-76
2021/12/21 02:27:27;;;;;;;16.40;9.65;;;;;;;;;;5062849;28;20048;-76
2021/12/21 02:29:53;;;;;;;15.85;10.07;;;;;;;;;;5098797;28;20102;-76
2021/12/21 02:32:19;;;;;;;15.35;10.40;;;;;;;;;;5068953;28;20586;-76
2021/12/21 02:34:46;;;;;;;14.80;10.38;;;;;;;;;;5058915;28;20076;-76
2021/12/21 02:37:12;;;;;;;12.20;9.38;;;;;;;;;;5067784;28;20052;-76
2021/12/21 02:39:39;;;;;;;13.18;9.32;;;;;;;;;;5094819;28;20116;-76
2021/12/21 02:42:06;;;;;;;15.65;10.38;;;;;;;;;;5066919;28;20044;-76
2021/12/21 02:44:32;;;;;;;12.77;9.20;;;;;;;;;;5065196;28;20049;-76
2021/12/21 02:47:01;;;;;;;13.10;9.15;;;;;;;;;;5094535;28;20066;-76
2021/12/21 02:49:27;;;;;;;14.30;9.38;;;;;;;;;;5099290;28;20053;-76
2021/12/21 02:51:53;;;;;;;15.20;9.40;;;;;;;;;;5100753;28;20210;-76
2021/12/21 02:54:20;;;;;;;14.32;9.27;;;;;;;;;;5068543;28;20484;-76
2021/12/21 02:56:47;;;;;;;13.30;9.27;;;;;;;;;;5065285;28;20043;-76
2021/12/21 02:59:13;;;;;;;14.48;9.80;;;;;;;;;;5067192;28;20480;-76
2021/12/21 03:01:39;;;;;;;13.93;9.35;;;;;;;;;;5093117;28;20051;-76
2021/12/21 03:04:07;;;;;;;14.63;10.05;;;;;;;;;;5068766;28;20553;-76
2021/12/21 03:12:08;;;;;;;14.55;9.60;;;;;;;;;;5063758;28;20048;-76
2021/12/21 03:14:34;;;;;;;;;;;;;;;;;;5066844;28;20037;-76
2021/12/21 03:17:04;;;;;;;12.85;9.05;;;;;;;;;;5065929;28;20388;-76
2021/12/21 03:19:30;;;;;;;13.60;9.52;;;;;;;;;;5095418;28;20560;-76
2021/12/21 03:21:56;;;;;;;16.48;11.30;;;;;;;;;;5079259;28;20120;-76
2021/12/21 03:24:22;;;;;;;15.02;10.27;;;;;;;;;;5062649;28;20112;-76
2021/12/21 03:26:50;;;;;;;16.17;10.60;;;;;;;;;;5062833;28;20483;-76
2021/12/21 03:29:16;;;;;;;18.60;10.93;;;;;;;;;;5067470;28;20131;-76
2021/12/21 03:31:42;;;;;;;14.60;10.77;;;;;;;;;;5066213;28;20052;-76
2021/12/21 03:34:09;;;;;;;14.60;10.32;;;;;;;;;;5067648;28;20041;-76
2021/12/21 03:36:35;;;;;;;15.57;10.73;;;;;;;;;;5064919;28;20033;-76
2021/12/21 03:39:06;;;;;;;15.30;10.85;;;;;;;;;;5062109;28;20124;-76
2021/12/21 03:41:32;;;;;;;15.50;10.82;;;;;;;;;;5059801;28;20075;-76
2021/12/21 03:44:01;;;;;;;17.52;10.50;;;;;;;;;;5067400;28;20120;-76
2021/12/21 03:46:28;;;;;;;16.50;10.07;;;;;;;;;;5067524;28;20057;-75
2021/12/21 03:48:54;;;;;;;19.90;11.63;;;;;;;;;;5068160;28;20388;-76
2021/12/21 03:51:21;;;;;;;16.50;11.55;;;;;;;;;;5064605;28;20477;-76
2021/12/21 03:53:47;;;;;;;19.70;11.77;;;;;;;;;;5064257;28;20090;-76
2021/12/21 03:56:36;;;;;;;18.80;11.80;;;;;;;;;;5063920;28;20420;-76
2021/12/21 03:59:02;;;;;;;16.60;11.88;;;;;;;;;;5066959;28;20055;-76
2021/12/21 04:01:28;;;;;;;15.85;11.10;;;;;;;;;;5067139;28;20049;-76
2021/12/21 04:03:54;;;;;;;16.98;11.38;;;;;;;;;;5068310;28;20097;-76
2021/12/21 04:06:20;;;;;;;16.48;11.65;;;;;;;;;;5062362;28;20135;-76
2021/12/21 04:08:46;;;;;;;16.35;11.15;;;;;;;;;;5066461;28;20973;-76
2021/12/21 04:11:12;;;;;;;16.65;11.23;;;;;;;;;;5068384;28;20131;-76
2021/12/21 04:13:38;;;;;;;13.80;11.73;;;;;;;;;;5067616;28;20119;-76
2021/12/21 04:16:05;;;;;;;14.98;11.70;;;;;;;;;;5062680;28;20040;-76
2021/12/21 04:18:35;;;;;;;15.23;12.15;;;;;;;;;;5061791;28;20052;-76
2021/12/21 04:21:02;;;;;;;17.33;12.15;;;;;;;;;;5068606;28;20063;-76
2021/12/21 04:23:28;;;;;;;16.10;11.45;;;;;;;;;;5064964;28;20090;-75
2021/12/21 04:25:54;;;;;;;15.43;12.05;;;;;;;;;;5068289;28;20449;-75
2021/12/21 04:28:20;;;;;;;14.35;11.25;;;;;;;;;;5062809;28;20136;-76
2021/12/21 04:30:46;;;;;;;15.90;11.82;;;;;;;;;;5074910;28;20048;-76
2021/12/21 04:33:12;;;;;;;17.00;11.75;;;;;;;;;;5066790;28;20045;-76
2021/12/21 04:35:38;;;;;;;15.75;11.73;;;;;;;;;;5069790;28;20052;-76
2021/12/21 04:41:08;;;;;;;19.05;13.25;;;;;;;;;;5057254;28;20045;-76
2021/12/21 04:43:34;;;;;;;15.95;11.57;;;;;;;;;;5067608;28;20052;-75
2021/12/21 04:46:00;;;;;;;15.75;11.55;;;;;;;;;;5069590;28;20043;-76
2021/12/21 04:48:27;;;;;;;16.08;11.82;;;;;;;;;;5071526;28;20504;-75
2021/12/21 04:50:53;;;;;;;18.00;12.50;;;;;;;;;;5069634;28;20065;-75
2021/12/21 04:53:19;;;;;;;17.55;12.38;;;;;;;;;;5064461;28;20111;-75
2021/12/21 04:55:45;;;;;;;16.52;12.65;;;;;;;;;;5070197;28;20041;-76
2021/12/21 04:58:11;;;;;;;17.45;13.05;;;;;;;;;;5071286;28;20037;-76
2021/12/21 05:00:38;;;;;;;20.40;12.23;;;;;;;;;;5098157;28;20082;-75
2021/12/21 05:03:07;;;;;;;18.38;12.35;;;;;;;;;;5068089;28;20102;-76
2021/12/21 05:05:33;;;;;;;15.93;12.13;;;;;;;;;;5099646;28;20041;-75
2021/12/21 05:08:10;;;;;;;19.05;13.40;;;;;;;;;;5069877;28;20052;-76
2021/12/21 05:11:03;;;;;;;16.17;12.75;;;;;;;;;;5094521;28;20052;-76
2021/12/21 05:13:30;;;;;;;19.38;12.48;;;;;;;;;;5070513;28;20040;-75
2021/12/21 05:15:56;;;;;;;17.77;12.35;;;;;;;;;;5066484;28;20510;-76
2021/12/21 05:18:23;;;;;;;18.73;12.77;;;;;;;;;;5065882;28;20044;-75
2021/12/21 05:20:49;;;;;;;16.10;12.60;;;;;;;;;;5066189;28;20036;-75
2021/12/21 05:23:15;;;;;;;18.25;13.30;;;;;;;;;;5066824;28;20079;-76
2021/12/21 05:25:41;;;;;;;20.00;13.18;;;;;;;;;;5063647;28;20457;-75
2021/12/21 05:28:09;;;;;;;17.70;13.10;;;;;;;;;;5067092;28;20488;-76
2021/12/21 05:30:36;;;;;;;17.52;13.82;;;;;;;;;;5066767;28;20051;-75
2021/12/21 05:33:02;;;;;;;18.50;12.93;;;;;;;;;;5064012;28;20476;-75
2021/12/21 05:35:28;;;;;;;19.35;13.25;;;;;;;;;;5098384;28;20052;-75
2021/12/21 05:37:59;;;;;;;25.67;14.43;;;;;;;;;;5065071;28;20052;-75
2021/12/21 05:40:33;;;;;;;23.50;14.05;;;;;;;;;;5063031;28;20048;-76
2021/12/21 05:42:59;;;;;;;18.45;13.55;;;;;;;;;;5070513;28;20377;-75
2021/12/21 05:45:25;;;;;;;21.77;13.70;;;;;;;;;;5068671;28;20044;-75
2021/12/21 05:47:51;;;;;;;19.67;13.85;;;;;;;;;;5067387;28;20433;-75
2021/12/21 05:50:19;;;;;;;21.00;14.25;;;;;;;;;;5069469;28;20143;-75
2021/12/21 05:52:45;;;;;;;15.38;13.73;;;;;;;;;;5063449;28;20387;-75
2021/12/21 05:55:11;;;;;;;18.75;14.85;;;;;;;;;;5067092;28;20052;-75
2021/12/21 05:57:37;;;;;;;19.60;14.27;;;;;;;;;;5067522;28;20515;-75
2021/12/21 06:00:05;;;;;;;19.00;14.02;;;;;;;;;;5069853;28;20143;-78
2021/12/21 06:02:31;;;;;;;21.50;15.13;;;;;;;;;;5070473;28;20416;-75
2021/12/21 06:04:57;;;;;;;20.38;14.52;;;;;;;;;;5058138;28;20053;-75
2021/12/21 06:07:23;;;;;;;21.38;15.15;;;;;;;;;;5071713;28;20045;-75
2021/12/21 06:09:55;;;;;;;18.70;14.68;;;;;;;;;;5093415;28;20048;-75
2021/12/21 06:12:59;;;;;;;24.42;15.43;;;;;;;;;;5066202;28;20037;-75
2021/12/21 06:16:22;;;;;;;25.38;17.15;;;;;;;;;;5064110;28;20567;-75
2021/12/21 06:26:13;;;;;;;26.30;18.70;;;;;;;;;;5066322;28;20044;-75
2021/12/21 06:28:40;;;;;;;24.70;17.73;;;;;;;;;;5063335;28;20764;-75
2021/12/21 06:31:06;;;;;;;27.98;17.02;;;;;;;;;;5069401;28;20086;-75
2021/12/21 06:33:32;;;;;;;25.08;16.85;;;;;;;;;;5096547;28;20044;-75
2021/12/21 06:35:59;;;;;;;23.77;16.40;;;;;;;;;;5067767;28;20396;-75
2021/12/21 06:38:25;;;;;;;25.92;17.52;;;;;;;;;;5065072;28;20029;-75
2021/12/21 06:40:52;;;;;;;20.90;15.98;;;;;;;;;;5062155;28;20464;-75
2021/12/21 06:43:18;;;;;;;24.42;15.77;;;;;;;;;;5066309;28;20377;-75
2021/12/21 06:53:36;;;;;;;19.80;15.98;;;;;;;;;;5060215;28;20408;-75
2021/12/21 06:56:02;;;;;;;20.60;16.85;;;;;;;;;;5071247;28;20041;-75
2021/12/21 06:58:28;;;;;;;20.10;15.85;;;;;;;;;;5066673;28;20496;-75
2021/12/21 07:00:54;;;;;;;22.35;15.50;;;;;;;;;;5058779;28;20112;-75
2021/12/21 07:03:20;;;;;;;24.98;16.35;;;;;;;;;;5062235;28;20059;-75
2021/12/21 07:05:47;;;;;;;21.98;16.60;;;;;;;;;;5070551;28;20075;-75
2021/12/21 07:08:16;;;;;;;24.10;16.52;;;;;;;;;;5067947;28;20504;-75
2021/12/21 07:10:52;;;;;;;22.05;15.65;;;;;;;;;;5066400;28;20048;-75
2021/12/21 07:19:02;;;;;;;22.08;16.85;;;;;;;;;;5068748;28;20048;-75
2021/12/21 07:21:28;;;;;;;20.77;15.40;;;;;;;;;;5068608;28;20519;-74
2021/12/21 07:23:54;;;;;;;22.65;16.13;;;;;;;;;;5063880;28;20032;-75
2021/12/21 07:26:20;;;;;;;23.05;15.88;;;;;;;;;;5067771;28;20051;-74
2021/12/21 07:28:46;;;;;;;21.52;17.30;;;;;;;;;;5064825;28;20140;-75
2021/12/21 07:31:12;;;;;;;23.42;16.70;;;;;;;;;;5061535;28;20056;-75
2021/12/21 07:33:38;;;;;;;20.52;17.33;;;;;;;;;;5097064;28;20819;-75
2021/12/21 07:36:04;;;;;;;25.38;16.90;;;;;;;;;;5063534;28;20450;-75
2021/12/21 07:38:32;;;;;;;22.40;17.30;;;;;;;;;;5062175;28;20040;-74
2021/12/21 07:40:58;;;;;;;24.25;16.50;;;;;;;;;;5066636;28;20053;-75
2021/12/21 07:43:24;;;;;;;24.50;17.48;;;;;;;;;;5069533;28;20044;-74
2021/12/21 07:45:51;;;;;;;20.45;15.95;;;;;;;;;;5063251;28;20160;-75
2021/12/21 07:48:17;;;;;;;24.48;16.10;;;;;;;;;;5060915;28;20044;-75
2021/12/21 07:50:43;;;;;;;24.48;16.23;;;;;;;;;;5066264;28;20083;-74
2021/12/21 07:53:09;;;;;;;24.92;17.27;;;;;;;;;;5069070;28;20047;-75
2021/12/21 07:55:35;;;;;;;24.15;17.02;;;;;;;;;;5065101;28;20041;-75
2021/12/21 07:58:01;;;;;;;21.33;16.70;;;;;;;;;;5040543;28;20048;-75
2021/12/21 08:00:27;;;;;;;22.27;16.65;;;;;;;;;;5068419;28;20049;-75
2021/12/21 08:02:54;;;;;;;22.25;16.48;;;;;;;;;;5065703;28;20072;-75
2021/12/21 08:05:21;;;;;;;21.02;17.50;;;;;;;;;;5065905;28;20056;-75
2021/12/21 08:07:52;;;;;;;20.38;16.70;;;;;;;;;;5059080;28;20058;-74
2021/12/21 08:10:40;;;;;;;24.83;16.20;;;;;;;;;;5056453;28;20048;-75
2021/12/21 08:13:05;;;;;;;21.13;16.92;;;;;;;;;;5064410;28;20064;-75
2021/12/21 08:15:31;;;;;;;24.98;16.15;;;;;;;;;;5064455;28;20045;-75
2021/12/21 08:17:57;;;;;;;22.50;16.90;;;;;;;;;;5065621;28;20037;-75
2021/12/21 08:20:23;;;;;;;28.60;17.23;;;;;;;;;;5064473;28;20044;-75
2021/12/21 08:22:49;;;;;;;24.17;17.40;;;;;;;;;;5068611;28;20048;-75
2021/12/21 08:25:15;;;;;;;21.65;17.25;;;;;;;;;;5069650;28;20052;-75
2021/12/21 08:27:41;;;;;;;25.92;19.33;;;;;;;;;;5055034;28;20538;-75
2021/12/21 08:30:08;;;;;;;24.60;17.08;;;;;;;;;;5061389;28;20036;-75
2021/12/21 08:32:34;;;;;;;23.27;17.98;;;;;;;;;;5055477;28;20454;-75
2021/12/21 08:35:00;;;;;;;24.77;17.17;;;;;;;;;;5060420;28;20135;-75
2021/12/21 08:37:27;;;;;;;24.65;17.83;;;;;;;;;;5067076;28;20052;-75
2021/12/21 08:39:53;;;;;;;24.95;18.08;;;;;;;;;;5059071;28;20050;-75
2021/12/21 08:42:19;;;;;;;22.10;17.52;;;;;;;;;;5067371;28;20048;-75
2021/12/21 08:44:47;;;;;;;23.63;16.92;;;;;;;;;;5061687;28;20605;-75
2021/12/21 08:47:13;;;;;;;24.80;17.30;;;;;;;;;;5062160;28;20114;-75
2021/12/21 08:49:39;;;;;;;24.17;16.77;;;;;;;;;;5064046;28;20475;-75
2021/12/21 08:52:05;;;;;;;21.20;16.55;;;;;;;;;;5063425;28;20045;-75
2021/12/21 08:54:31;;;;;;;26.08;17.52;;;;;;;;;;5063503;28;20048;-75
2021/12/21 08:56:57;;;;;;;24.58;17.45;;;;;;;;;;5064062;28;20106;-75
2021/12/21 08:59:23;;;;;;;22.75;17.23;;;;;;;;;;5061106;28;20349;-76
2021/12/21 09:01:51;;;;;;;25.17;17.17;;;;;;;;;;5056169;28;20083;-76
2021/12/21 09:04:19;;;;;;;20.48;17.38;;;;;;;;;;5061696;28;20049;-75
2021/12/21 09:06:46;;;;;;;24.48;17.50;;;;;;;;;;5065060;28;20091;-75
2021/12/21 09:09:12;;;;;;;26.20;17.27;;;;;;;;;;5077453;28;20044;-75
2021/12/21 09:11:38;;;;;;;24.10;17.17;;;-0.50;99.90;;;;;;5065760;28;20123;-75
2021/12/21 09:14:04;;;;;;;24.83;17.15;;;-0.60;99.90;;;;;;5065172;28;20048;-75
2021/12/21 09:16:30;;;;;;;23.08;16.20;;;-0.50;99.90;;;;;;5060364;28;20536;-75
2021/12/21 09:18:56;;;;;;;22.67;15.05;;;-0.50;99.90;;;;;;5061581;28;20044;-75
2021/12/21 09:21:21;;;;;;;23.05;15.63;;;-0.50;99.90;;;;;;5069423;28;20509;-75
2021/12/21 09:23:47;;;;;;;25.60;15.60;;;-0.50;99.90;;;;;;5061601;28;20117;-76
2021/12/21 09:26:14;;;;;;;20.40;14.27;;;;;;;;;;5065157;28;20053;-76
2021/12/21 09:28:40;;;;;;;22.45;15.13;;;;;;;;;;5064546;28;20124;-76
2021/12/21 09:31:07;;;;;;;23.33;14.73;;;;;;;;;;5067744;28;20079;-76
2021/12/21 09:33:33;;;;;;;23.83;14.32;;;;;;;;;;5066141;28;20044;-76
2021/12/21 09:35:58;;;;;;;24.42;15.57;;;-0.40;99.90;;;;;;5066344;28;20079;-76
2021/12/21 09:38:24;;;;;;;20.52;14.18;;;-0.20;99.90;;;;;;5067639;28;20463;-76
2021/12/21 09:40:50;;;;;;;19.70;13.70;;;-0.10;99.90;;;;;;5065926;28;20555;-76
2021/12/21 09:43:15;;;;;;;19.85;13.98;;;-0.10;99.90;;;;;;5068057;28;20064;-76
2021/12/21 09:45:41;;;;;;;19.85;12.98;;;;;;;;;;5069485;28;20053;-76
2021/12/21 09:48:08;;;;;;;19.73;13.48;;;;;;;;;;5066613;28;20036;-75
2021/12/21 09:50:34;;;;;;;18.73;12.63;;;;;;;;;;5064710;28;20080;-76
2021/12/21 09:53:00;;;;;;;21.73;11.98;;;;;;;;;;5068983;28;20045;-76
2021/12/21 09:55:29;;;;;;;18.17;11.23;;;;;;;;;;5063628;28;20173;-76
2021/12/21 09:57:55;;;;;;;18.92;12.18;;;;;;;;;;5065148;28;20037;-76
2021/12/21 10:00:29;;;;;;;17.92;12.60;;;-0.10;99.90;;;;;;5063957;28;20055;-76
2021/12/21 10:03:02;;;;;;;18.27;12.15;;;;;;;;;;5061194;28;20055;-76
2021/12/21 10:05:29;;;;;;;19.65;12.75;;;0.30;99.90;;;;;;5066002;28;20166;-76
2021/12/21 10:08:05;;;;;;;20.67;11.98;;;0.40;99.90;;;;;;5062190;28;20037;-76
2021/12/21 10:10:41;;;;;;;17.98;11.43;;;0.70;99.90;;;;;;5065427;28;20044;-76
2021/12/21 10:13:19;;;;;;;17.70;11.25;;;0.40;99.90;;;;;;5062856;28;20052;-76
2021/12/21 10:15:50;;;;;;;18.80;11.77;;;0.50;99.90;;;;;;5067027;28;20051;-76
2021/12/21 10:18:31;;;;;;;18.40;11.73;;;0.50;99.90;;;;;;5061570;28;20052;-76
2021/12/21 10:20:59;;;;;;;19.77;12.10;;;0.60;99.90;;;;;;5065472;28;20044;-75
2021/12/21 10:23:27;;;;;;;18.00;11.07;;;0.60;99.90;;;;;;5063854;28;20520;-76
2021/12/21 10:26:03;;;;;;;16.48;10.88;;;1.10;99.90;;;;;;5063741;28;20041;-76
2021/12/21 10:28:40;;;;;;;21.67;11.07;;;0.80;99.90;;;;;;5065009;28;20036;-76
2021/12/21 10:31:08;;;;;;;20.63;10.93;;;0.80;99.90;;;;;;5063494;28;20062;-76
2021/12/21 10:33:35;;;;;;;17.85;11.10;;;0.80;99.90;;;;;;5062990;28;20075;-75
2021/12/21 10:36:04;;;;;;;19.02;11.48;;;0.90;99.90;;;;;;5062498;28;20129;-75
2021/12/21 10:38:33;;;;;;;17.63;11.38;;;0.90;99.90;;;;;;5068557;28;20404;-76
2021/12/21 10:41:16;;;;;;;16.58;10.48;;;1.00;99.90;;;;;;5060046;28;20388;-75
2021/12/21 10:43:53;;;;;;;15.45;10.15;;;1.00;99.90;;;;;;5061569;28;20131;-75
2021/12/21 10:46:21;;;;;;;15.10;10.43;;;1.10;99.90;;;;;;5064605;28;20048;-75
2021/12/21 10:48:49;;;;;;;16.30;10.52;;;1.20;99.90;;;;;;5078223;28;20036;-75
2021/12/21 10:51:15;;;;;;;14.65;9.88;;;1.20;99.90;;;;;;5056284;28;20086;-75
2021/12/21 10:53:48;;;;;;;20.10;10.73;;;1.30;99.90;;;;;;5075319;28;20077;-75
2021/12/21 10:56:16;;;;;;;17.13;10.90;;;1.40;99.90;;;;;;5058459;28;20045;-75
2021/12/21 10:58:43;;;;;;;14.90;10.10;;;1.40;99.90;;;;;;5056157;28;20094;-75
2021/12/21 11:01:16;;;;;;;19.52;10.35;;;1.50;99.90;;;;;;5066192;28;20578;-75
2021/12/21 11:03:49;;;;;;;14.57;9.73;;;1.50;99.90;;;;;;5057227;28;20527;-75
2021/12/21 11:06:23;;;;;;;17.95;10.25;;;1.60;99.90;;;;;;5065234;28;20054;-75
2021/12/21 11:08:53;;;;;;;18.08;10.27;;;1.70;99.90;;;;;;5060376;28;20124;-75
2021/12/21 11:11:32;;;;;;;18.17;9.32;;;1.80;99.90;;;;;;5054408;28;20131;-75
2021/12/21 11:14:13;;;;;;;13.70;9.38;;;1.80;99.90;;;;;;5061003;28;20119;-75
2021/12/21 11:16:51;;;;;;;16.40;9.05;;;1.90;99.90;;;;;;5057093;28;20131;-75
2021/12/21 11:19:19;;;;;;;16.17;9.30;;;1.90;99.90;;;;;;5053588;28;20048;-75
2021/12/21 11:21:45;;;;;;;14.27;8.80;;;2.00;99.90;;;;;;5056702;28;20029;-75
2021/12/21 11:24:14;;;;;;;15.63;9.27;;;2.00;99.90;;;;;;5066611;28;20150;-75
2021/12/21 11:26:41;;;;;;;16.02;9.25;;;2.10;99.90;;;;;;5067171;28;20086;-75
2021/12/21 11:29:13;;;;;;;13.32;9.18;;;2.10;99.90;;;;;;5066399;28;20045;-75
2021/12/21 11:31:42;;;;;;;14.75;9.00;;;2.10;99.90;;;;;;5057027;28;20400;-75
2021/12/21 11:34:13;;;;;;;16.40;8.55;;;;;;;;;;5059999;28;20116;-75
2021/12/21 11:39:24;;;;;;;15.30;8.65;;;;;;;;;;5059361;28;20041;-75
2021/12/21 11:41:50;;;;;;;14.02;8.95;;;;;;;;;;5058033;28;20162;-75
2021/12/21 11:44:24;;;;;;;17.98;9.05;;;;;;;;;;5060040;28;20041;-75
2021/12/21 11:46:59;;;;;;;16.27;8.93;;;;;;;;;;5055496;28;20511;-75
2021/12/21 11:49:26;;;;;;;12.00;8.13;;;;;;;;;;5062003;28;20415;-75
2021/12/21 11:51:52;;;;;;;12.40;8.10;;;;;;;;;;5091500;28;20040;-75
2021/12/21 11:54:19;;;;;;;14.50;8.40;;;;;;;;;;5066476;28;20041;-75
2021/12/21 11:56:45;;;;;;;13.52;7.05;;;;;;;;;;5057982;28;20090;-75
2021/12/21 11:59:11;;;;;;;14.68;7.90;;;;;;;;;;5057523;28;20040;-75
2021/12/21 12:01:44;;;;;;;15.25;8.13;;;;;;;;;;5056542;28;20084;-75
2021/12/21 12:04:11;;;;;;;13.90;7.95;;;;;;;;;;5056360;28;20052;-75
2021/12/21 12:06:48;;;;;;;15.65;7.07;;;;;;;;;;5067102;28;20037;-74
2021/12/21 12:09:33;;;;;;;21.67;7.47;;;;;;;;;;5055746;28;20040;-75
2021/12/21 12:12:17;;;;;;;15.25;6.10;;;;;;;;;;5062825;28;20042;-75
2021/12/21 12:14:44;;;;;;;13.85;6.10;;;;;;;;;;5063354;28;20122;-74
2021/12/21 12:17:26;;;;;;;13.88;5.72;;;2.20;99.90;;;;;;5061107;28;20045;-74
2021/12/21 12:20:01;;;;;;;11.63;5.65;;;3.40;99.90;;;;;;5056051;28;20052;-75
2021/12/21 12:22:38;;;;;;;11.82;6.20;;;3.50;99.90;;;;;;5061698;28;20040;-74
2021/12/21 12:25:07;;;;;;;14.10;5.65;;;3.60;99.90;;;;;;5068064;28;20044;-74
2021/12/21 12:27:41;;;;;;;12.00;5.82;;;3.60;99.90;;;;;;5068003;28;20126;-74
2021/12/21 12:30:13;;;;;;;12.90;5.03;;;3.70;99.90;;;;;;5058358;28;20044;-74
2021/12/21 12:32:47;;;;;;;10.07;4.97;;;3.70;99.90;;;;;;5058307;28;20516;-74
2021/12/21 12:35:28;;;;;;;12.93;5.55;;;3.80;99.90;;;;;;5062920;28;20049;-75
2021/12/21 12:37:53;;;;;;;9.50;4.90;;;4.00;99.90;;;;;;5061874;28;20040;-75
2021/12/21 12:40:24;;;;;;;8.63;5.10;;;4.10;99.90;;;;;;5079788;28;20051;-75
2021/12/21 12:43:04;;;;;;;12.25;4.60;;;;;;;;;;5062408;28;20056;-75
2021/12/21 12:46:04;;;;;;;8.35;4.18;;;;;;;;;;5067901;28;20112;-75
2021/12/21 12:48:39;;;;;;;9.35;4.38;;;;;;;;;;5060565;28;20047;-75
2021/12/21 12:51:06;;;;;;;9.85;3.90;;;;;;;;;;5080582;28;20045;-75
2021/12/21 12:53:37;;;;;;;9.75;4.35;;;;;;;;;;5054174;28;20117;-75
2021/12/21 12:56:04;;;;;;;11.93;3.50;;;;;;;;;;5064017;28;20048;-75
2021/12/21 12:58:30;;;;;;;6.93;3.90;;;;;;;;;;5069896;28;20047;-75
2021/12/21 13:01:10;;;;;;;7.20;3.28;;;;;;;;;;5063598;28;20040;-76
2021/12/21 13:03:37;;;;;;;8.18;3.38;;;;;;;;;;5061476;28;20048;-75
2021/12/21 13:06:16;;;;;;;6.88;3.42;;;;;;;;;;5067324;28;20123;-75
2021/12/21 13:08:43;;;;;;;6.35;3.22;;;;;;;;;;5059538;28;20131;-75
2021/12/21 13:11:09;;;;;;;5.80;3.20;;;;;;;;;;5065418;28;20044;-76
2021/12/21 13:13:40;;;;;;;8.45;3.28;;;;;;;;;;5061703;28;20049;-76
2021/12/21 13:16:06;;;;;;;8.20;2.83;;;;;;;;;;5063137;28;20492;-75
2021/12/21 13:18:32;;;;;;;9.38;2.78;;;;;;;;;;5062276;28;20094;-73
2021/12/21 13:20:59;;;;;;;6.90;3.17;;;;;;;;;;5086563;28;20073;-73
2021/12/21 13:23:29;;;;;;;5.82;2.53;;;;;;;;;;5057318;28;20496;-73
2021/12/21 13:26:01;;;;;;;7.53;3.20;;;;;;;;;;5057012;28;20132;-73
2021/12/21 13:28:30;;;;;;;7.70;3.22;;;;;;;;;;5067366;28;20084;-73
2021/12/21 13:30:57;;;;;;;7.75;3.00;;;;;;;;;;5085965;28;20045;-73
2021/12/21 13:33:24;;;;;;;8.10;3.00;;;;;;;;;;5070134;28;20045;-73
2021/12/21 13:35:51;;;;;;;4.43;2.92;;;;;;;;;;5068210;28;20516;-72
2021/12/21 13:38:18;;;;;;;7.22;3.38;;;;;;;;;;5063171;28;20052;-72
2021/12/21 13:40:46;;;;;;;8.32;3.53;;;;;;;;;;5055226;28;20385;-72
2021/12/21 13:43:13;;;;;;;6.47;3.10;;;;;;;;;;5087772;28;20047;-73
2021/12/21 13:45:39;;;;;;;8.38;2.97;;;;;;;;;;5087620;28;21561;-73
2021/12/21 13:48:05;;;;;;;7.55;2.90;;;;;;;;;;5069553;28;20047;-75
2021/12/21 13:50:31;;;;;;;6.60;3.08;;;10.30;99.90;;;;;;5062700;28;20053;-73
2021/12/21 13:52:59;;;;;;;9.68;3.65;;;9.80;99.90;;;;;;5059077;28;20106;-73
2021/12/21 13:55:30;;;;;;;7.45;3.30;;;9.50;99.90;;;;;;5062087;28;20045;-73
2021/12/21 13:57:58;;;;;;;8.10;3.10;;;9.10;99.90;;;;;;5070392;28;20404;-73
2021/12/21 14:00:26;;;;;;;6.47;2.97;;;9.10;99.90;;;;;;5066932;28;20048;-74
2021/12/21 14:03:03;;;;;;;7.55;3.40;;;9.00;99.90;;;;;;5065977;28;20044;-73
2021/12/21 14:05:41;;;;;;;9.27;3.50;;;9.00;99.90;;;;;;5067932;28;20054;-73
2021/12/21 14:08:07;;;;;;;8.05;3.25;;;9.00;99.90;;;;;;5067058;28;20484;-73
2021/12/21 14:10:41;;;;;;;9.32;3.20;;;9.00;99.90;;;;;;5056803;28;20051;-73
2021/12/21 14:13:07;;;;;;;7.78;3.90;;;9.00;99.90;;;;;;5065052;28;20540;-73
2021/12/21 14:15:42;;;;;;;6.93;3.30;;;8.70;99.90;;;;;;5057580;28;20123;-73
2021/12/21 14:18:21;;;;;;;6.68;3.28;;;8.40;99.90;;;;;;5070173;28;20396;-73
2021/12/21 14:20:48;;;;;;;5.20;2.90;;;;;;;;;;5080376;28;20047;-73
2021/12/21 14:23:18;;;;;;;7.38;3.53;;;8.00;99.90;;;;;;5065688;28;20098;-73
2021/12/21 14:25:44;;;;;;;10.38;3.78;;;7.80;99.90;;;;;;5066997;28;20040;-73
2021/12/21 14:28:12;;;;;;;8.90;3.80;;;7.70;99.90;;;;;;5067500;28;20055;-73
2021/12/21 14:30:38;;;;;;;8.65;3.28;;;7.90;99.90;;;;;;5065028;28;20063;-72
2021/12/21 14:33:20;;;;;;;11.90;3.40;;;7.80;99.90;;;;;;5060478;28;20492;-73
2021/12/21 14:35:45;;;;;;;6.90;3.35;;;7.70;99.90;;;;;;5059054;28;20128;-73
2021/12/21 14:38:16;;;;;;;6.00;3.47;;;7.80;99.90;;;;;;5052197;28;20143;-74
2021/12/21 14:40:45;;;;;;;7.57;3.63;;;7.60;99.90;;;;;;5062968;28;20060;-74
2021/12/21 14:43:27;;;;;;;6.32;3.17;;;7.20;99.90;;;;;;5061487;28;20037;-73
2021/12/21 14:45:53;;;;;;;7.32;3.42;;;6.80;99.90;;;;;;5060730;28;20048;-76
2021/12/21 14:48:20;;;;;;;10.52;3.90;;;6.40;99.90;;;;;;5076140;28;20051;-76
2021/12/21 14:50:53;;;;;;;6.93;3.55;;;;;;;;;;5065064;28;20118;-75
2021/12/21 14:53:21;;;;;;;11.03;3.53;;;6.10;99.90;;;;;;5064218;28;20040;-75
2021/12/21 14:55:48;;;;;;;9.05;3.70;;;5.60;99.90;;;;;;5054925;28;20475;-75
2021/12/21 14:58:18;;;;;;;10.48;3.50;;;5.40;99.90;;;;;;5061170;28;20040;-75
2021/12/21 15:00:53;;;;;;;11.43;4.13;;;5.20;99.90;;;;;;5054970;28;20050;-75
2021/12/21 15:03:20;;;;;;;11.15;4.00;;;5.00;99.90;;;;;;5058090;28;20048;-75